Time;durP1;ratioP1;P1;durP2;ratioP2;P2;SDS_P1;SDS_P2;PMS_P1;PMS_P2;Temp;Humidity;BMP_temperature;BMP_pressure;BME280_temperature;BME280_humidity;BME280_pressure;Samples;Min_cycle;Max_cycle;Signal;HPM_P1;HPM_P2
2022/09/13 00:01:34;;;;;;;8.90;4.03;;;;;;;23.84;47.07;99313.97;4145760;28;20313;-63
2022/09/13 00:03:36;;;;;;;4.17;3.40;;;;;;;23.29;47.55;99329.41;4141144;28;20673;-63
2022/09/13 00:05:38;;;;;;;6.60;3.53;;;;;;;23.05;48.29;99320.69;4141762;28;20245;-62
2022/09/13 00:07:40;;;;;;;3.70;3.40;;;;;;;23.75;47.19;99289.19;4145078;28;20248;-63
2022/09/13 00:09:41;;;;;;;5.93;4.20;;;;;;;24.20;46.43;99295.28;4145752;28;20237;-63
2022/09/13 00:11:43;;;;;;;5.23;3.77;;;;;;;25.14;44.61;99292.81;4145764;28;20816;-63
2022/09/13 00:13:45;;;;;;;7.27;4.53;;;;;;;25.58;43.51;99311.47;4137973;28;20221;-64
2022/09/13 00:15:49;;;;;;;4.77;3.87;;;;;;;24.85;45.24;99336.75;4142372;28;20267;-63
2022/09/13 00:17:50;;;;;;;6.47;4.23;;;;;;;24.45;45.57;99338.94;4146671;28;20599;-63
2022/09/13 00:19:52;;;;;;;5.53;4.20;;;;;;;23.73;46.91;99351.88;4145391;28;20233;-63
2022/09/13 00:21:53;;;;;;;4.40;4.00;;;;;;;24.60;45.70;99286.56;4143584;28;20244;-63
2022/09/13 00:23:55;;;;;;;4.30;3.90;;;;;;;25.29;44.68;99290.16;4144139;28;20236;-63
2022/09/13 00:26:05;;;;;;;5.27;4.10;;;;;;;25.31;44.43;99298.03;4144107;28;20247;-63
2022/09/13 00:28:07;;;;;;;5.77;3.83;;;;;;;24.67;45.47;99332.56;4145296;28;20236;-63
2022/09/13 00:30:10;;;;;;;4.73;4.10;;;;;;;24.36;46.00;99326.91;4145726;28;20228;-62
2022/09/13 00:32:12;;;;;;;7.77;4.10;;;;;;;23.88;47.01;99326.78;4138974;28;20725;-63
2022/09/13 00:34:13;;;;;;;4.57;4.17;;;;;;;24.42;46.08;99287.00;4143364;28;20268;-63
2022/09/13 00:36:15;;;;;;;6.40;3.97;;;;;;;24.22;46.36;99310.22;4141241;28;20353;-63
2022/09/13 00:38:16;;;;;;;4.50;4.10;;;;;;;23.73;46.77;99327.44;4144552;28;20240;-62
2022/09/13 00:40:19;;;;;;;4.73;4.20;;;;;;;24.27;46.48;99274.94;4139651;28;20328;-62
2022/09/13 00:42:27;;;;;;;4.70;4.20;;;;;;;24.98;44.87;99281.88;4143135;28;20312;-63
2022/09/13 00:44:54;;;;;;;4.53;4.13;;;;;;;25.38;44.00;99287.75;4139783;28;20269;-65
2022/09/13 00:46:55;;;;;;;6.90;4.30;;;;;;;25.68;43.60;99281.53;4138401;28;20308;-62
2022/09/13 00:49:30;;;;;;;6.50;4.57;;;;;;;25.01;44.60;99319.41;4142677;28;20247;-62
2022/09/13 00:51:32;;;;;;;6.97;4.27;;;;;;;25.44;43.40;99300.25;4142342;28;20240;-62
2022/09/13 00:53:38;;;;;;;5.93;4.03;;;;;;;25.79;43.05;99306.84;4140347;28;20320;-63
2022/09/13 00:56:08;;;;;;;4.47;3.93;;;;;;;25.58;42.80;99316.91;4139534;28;20229;-62
2022/09/13 00:58:21;;;;;;;5.50;4.60;;;;;;;24.55;44.93;99346.34;4140568;28;20247;-62
2022/09/13 01:00:22;;;;;;;4.57;3.60;;;;;;;25.31;43.19;99323.34;4144833;28;20254;-62
2022/09/13 01:02:26;;;;;;;6.27;3.50;;;;;;;25.09;43.39;99337.16;4146234;28;20664;-62
2022/09/13 01:04:31;;;;;;;3.77;3.40;;;;;;;24.16;45.19;99360.16;4143359;28;20233;-62
2022/09/13 01:06:34;;;;;;;5.67;3.70;;;;;;;24.37;45.15;99336.69;4144500;28;20272;-63
2022/09/13 01:08:40;;;;;;;4.60;3.87;;;;;;;23.75;46.49;99341.59;4140132;28;20922;-63
2022/09/13 01:10:43;;;;;;;4.90;4.23;;;;;;;24.21;45.23;99345.81;4145296;28;20233;-63
2022/09/13 01:12:50;;;;;;;6.00;4.20;;;;;;;23.53;46.21;99352.44;4143376;28;20328;-63
2022/09/13 01:14:52;;;;;;;6.20;4.40;;;;;;;24.02;46.07;99331.78;4141805;28;20253;-63
2022/09/13 01:16:53;;;;;;;4.57;4.17;;;;;;;23.48;46.92;99330.69;4139367;28;20229;-63
2022/09/13 01:18:55;;;;;;;4.30;3.90;;;;;;;24.14;45.96;99310.69;4142160;28;20233;-63
2022/09/13 01:21:12;;;;;;;5.37;4.33;;;;;;;24.40;45.25;99321.78;4143628;28;20233;-63
2022/09/13 01:23:22;;;;;;;7.13;4.53;;;;;;;24.91;44.41;99311.22;4143184;28;20248;-63
2022/09/13 01:25:43;;;;;;;8.87;4.17;;;;;;;25.05;44.38;99325.16;4137488;28;20885;-63
2022/09/13 01:28:09;;;;;;;7.17;4.67;;;;;;;25.17;44.32;99331.19;4141530;28;20238;-63
2022/09/13 01:30:21;;;;;;;9.00;5.00;;;;;;;25.02;44.40;99336.56;4114728;28;20232;-63
2022/09/13 01:32:29;;;;;;;5.87;5.10;;;;;;;25.12;44.14;99333.06;4141528;28;20233;-63
2022/09/13 01:34:52;;;;;;;6.57;4.93;;;;;;;24.75;45.25;99340.22;4141316;28;20234;-63
2022/09/13 01:37:12;;;;;;;7.47;5.23;;;;;;;24.19;46.16;99354.22;4140652;28;20228;-63
2022/09/13 01:39:22;;;;;;;5.40;4.50;;;;;;;23.88;46.60;99348.50;4142746;28;20225;-63
2022/09/13 01:41:30;;;;;;;5.23;4.73;;;;;;;22.94;48.26;99372.06;4142025;28;20243;-63
2022/09/13 01:43:50;;;;;;;4.57;4.17;;;;;;;23.77;47.08;99319.59;4140802;28;20736;-63
2022/09/13 01:45:55;;;;;;;5.53;4.53;;;;;;;23.72;47.06;99327.69;4142157;28;20261;-64
2022/09/13 01:48:08;;;;;;;6.83;4.87;;;;;;;23.56;47.33;99338.41;4141123;28;20228;-63
2022/09/13 01:50:20;;;;;;;7.43;4.20;;;;;;;24.65;45.12;99289.31;4140806;28;20670;-62
2022/09/13 01:52:25;;;;;;;5.27;4.40;;;;;;;24.38;44.32;99348.38;4143682;28;20271;-63
2022/09/13 01:55:04;;;;;;;5.00;4.50;;;;;;;23.63;45.76;99372.66;4145183;28;20229;-63
2022/09/13 01:57:23;;;;;;;5.13;4.13;;;;;;;23.56;46.25;99343.81;4142126;28;20243;-63
2022/09/13 01:59:37;;;;;;;4.80;3.63;;;;;;;23.32;47.04;99320.75;4141615;28;20236;-64
2022/09/13 02:02:01;;;;;;;6.50;4.63;;;;;;;23.53;46.01;99347.00;4142270;28;20240;-63
2022/09/13 02:04:12;;;;;;;4.70;4.20;;;;;;;23.63;45.72;99340.91;4138140;28;20319;-63
2022/09/13 02:06:20;;;;;;;6.57;4.70;;;;;;;22.88;47.27;99361.38;4139660;28;20319;-62
2022/09/13 02:08:36;;;;;;;7.27;4.60;;;;;;;22.65;47.82;99349.69;4140854;28;20311;-63
2022/09/13 02:10:46;;;;;;;5.30;3.70;;;;;;;23.00;46.68;99332.31;4140158;28;20320;-63
2022/09/13 02:12:52;;;;;;;5.73;4.13;;;;;;;23.91;45.39;99296.38;4140800;28;20232;-63
2022/09/13 02:15:03;;;;;;;4.23;3.80;;;;;;;24.61;43.72;99296.34;4137727;28;20239;-64
2022/09/13 02:17:14;;;;;;;6.87;4.33;;;;;;;24.60;43.89;99308.31;4140689;28;20791;-63
2022/09/13 02:19:20;;;;;;;6.27;4.40;;;;;;;24.44;44.40;99337.28;4144511;28;20834;-63
2022/09/13 02:21:28;;;;;;;9.77;5.07;;;;;;;23.61;46.07;99353.09;4137752;28;20240;-61
2022/09/13 02:23:40;;;;;;;6.17;5.00;;;;;;;23.35;47.13;99341.91;4141999;28;20888;-62
2022/09/13 02:25:44;;;;;;;6.33;5.23;;;;;;;24.19;45.47;99313.47;4136083;28;20238;-62
2022/09/13 02:27:53;;;;;;;5.57;4.97;;;;;;;24.55;44.53;99330.03;4140208;28;20777;-61
2022/09/13 02:30:00;;;;;;;8.27;5.40;;;;;;;24.55;44.43;99334.63;4145902;28;20228;-65
2022/09/13 02:32:21;;;;;;;7.60;5.00;;;;;;;23.85;45.47;99353.63;4139320;28;20822;-60
2022/09/13 02:34:35;;;;;;;7.73;5.33;;;;;;;22.71;47.61;99372.25;4138523;28;20236;-62
2022/09/13 02:36:40;;;;;;;5.63;5.07;;;;;;;21.95;49.91;99330.16;4137632;28;20237;-62
2022/09/13 02:38:47;;;;;;;6.23;5.43;;;;;;;21.42;50.39;99334.00;4141405;28;20246;-62
2022/09/13 02:40:57;;;;;;;6.00;5.33;;;;;;;22.60;48.18;99300.84;4144128;28;20232;-62
2022/09/13 02:43:15;;;;;;;5.67;5.07;;;;;;;22.92;48.00;99278.50;4143839;28;20612;-62
2022/09/13 02:45:20;;;;;;;6.13;5.17;;;;;;;23.87;45.97;99292.56;4141315;28;20245;-62
2022/09/13 02:47:29;;;;;;;13.60;6.00;;;;;;;22.70;47.77;99333.50;4140978;28;20337;-62
2022/09/13 02:50:09;;;;;;;6.20;5.33;;;;;;;22.04;49.28;99317.84;4138207;28;20309;-62
2022/09/13 02:52:23;;;;;;;8.80;5.53;;;;;;;22.95;47.44;99310.56;4140314;28;20780;-62
2022/09/13 02:54:29;;;;;;;8.93;5.80;;;;;;;23.13;47.56;99277.69;4141389;28;20233;-62
2022/09/13 02:56:39;;;;;;;12.87;6.10;;;;;;;23.24;47.27;99299.50;4141564;28;20642;-62
2022/09/13 02:58:48;;;;;;;7.00;5.93;;;;;;;23.85;45.85;99291.97;4139073;28;20327;-62
2022/09/13 03:00:50;;;;;;;7.30;5.60;;;;;;;24.50;45.13;99272.94;4139832;28;20662;-62
2022/09/13 03:02:53;;;;;;;8.40;5.80;;;;;;;23.34;46.62;99332.16;4139443;28;20315;-62
2022/09/13 03:04:57;;;;;;;9.83;6.03;;;;;;;23.74;46.36;99290.28;4137518;28;20360;-62
2022/09/13 03:07:00;;;;;;;7.20;6.13;;;;;;;24.36;45.24;99290.78;4139764;28;20317;-63
2022/09/13 03:09:04;;;;;;;7.13;6.00;;;;;;;23.49;46.64;99328.81;4140433;28;20308;-62
2022/09/13 03:11:14;;;;;;;9.93;6.23;;;;;;;21.79;50.42;99348.00;4141399;28;20248;-62
2022/09/13 03:13:39;;;;;;;7.90;6.07;;;;;;;21.97;51.16;99292.81;4141505;28;20741;-62
2022/09/13 03:15:44;;;;;;;6.53;5.77;;;;;;;23.61;47.72;99247.28;4140285;28;20281;-62
2022/09/13 03:18:18;;;;;;;11.00;6.67;;;;;;;22.30;49.38;99341.84;4142236;28;20237;-62
2022/09/13 03:20:40;;;;;;;8.13;7.17;;;;;;;23.78;47.22;99260.72;4136810;28;20309;-65
2022/09/13 03:23:11;;;;;;;8.93;6.60;;;;;;;23.92;46.47;99291.78;4141547;28;20248;-62
2022/09/13 03:25:24;;;;;;;10.00;6.93;;;;;;;24.34;46.30;99265.75;4134577;28;20243;-62
2022/09/13 03:27:51;;;;;;;10.27;6.60;;;;;;;24.26;45.99;99273.34;4140661;28;20251;-61
2022/09/13 03:30:01;;;;;;;11.73;6.43;;;;;;;23.73;47.07;99307.63;4141209;28;20225;-62
2022/09/13 03:32:25;;;;;;;10.00;6.13;;;;;;;23.16;48.14;99309.69;4141424;28;20235;-62
2022/09/13 03:34:32;;;;;;;7.43;5.93;;;;;;;23.79;46.93;99281.34;4135640;28;20569;-62
2022/09/13 03:36:45;;;;;;;7.77;5.83;;;;;;;21.83;49.69;99351.88;4124512;28;20241;-64
2022/09/13 03:38:57;;;;;;;11.47;5.60;;;;;;;23.16;47.94;99269.03;4122267;28;20229;-61
2022/09/13 03:41:20;;;;;;;6.90;5.53;;;;;;;23.58;47.45;99240.44;4122602;28;20320;-62
2022/09/13 03:43:35;;;;;;;9.80;5.70;;;;;;;22.65;48.85;99285.47;4126171;28;20278;-62
2022/09/13 03:45:44;;;;;;;6.57;5.70;;;;;;;22.17;49.73;99295.03;4121519;28;20731;-62
2022/09/13 03:47:49;;;;;;;9.27;5.80;;;;;;;23.35;48.08;99234.25;4122878;28;20234;-62
2022/09/13 03:49:52;;;;;;;8.63;5.90;;;;;;;23.06;47.99;99274.34;4118863;28;20254;-62
2022/09/13 03:51:55;;;;;;;7.00;5.73;;;;;;;23.52;47.70;99242.28;4121202;28;20337;-65
2022/09/13 03:54:01;;;;;;;7.60;5.70;;;;;;;23.21;47.94;99265.56;4123171;28;20325;-65
2022/09/13 03:56:16;;;;;;;9.20;6.40;;;;;;;23.72;46.73;99244.38;4121713;28;20221;-62
2022/09/13 03:58:19;;;;;;;9.53;6.07;;;;;;;24.03;46.08;99254.69;4132335;28;20225;-62
2022/09/13 04:00:21;;;;;;;9.00;6.50;;;;;;;24.13;45.30;99282.72;4125541;28;20890;-63
2022/09/13 04:02:25;;;;;;;9.60;6.30;;;;;;;24.01;45.41;99305.69;4119881;28;20551;-62
2022/09/13 04:04:26;;;;;;;11.57;5.93;;;;;;;23.93;45.41;99323.28;4126273;28;20339;-63
2022/09/13 04:06:28;;;;;;;7.37;5.80;;;;;;;23.76;45.62;99318.78;4133640;28;20683;-62
2022/09/13 04:08:30;;;;;;;7.70;5.43;;;;;;;23.52;46.26;99312.03;4122587;28;20813;-62
2022/09/13 04:10:36;;;;;;;6.00;5.40;;;;;;;23.44;46.03;99334.19;4127570;28;20317;-62
2022/09/13 04:12:40;;;;;;;9.37;5.67;;;;;;;22.62;47.58;99345.59;4127728;28;20324;-62
2022/09/13 04:14:44;;;;;;;9.53;5.83;;;;;;;22.13;48.70;99356.16;4131802;28;20260;-62
2022/09/13 04:16:46;;;;;;;9.37;5.50;;;;;;;22.46;47.97;99330.97;4139149;28;20232;-62
2022/09/13 04:18:48;;;;;;;7.20;5.63;;;;;;;22.88;47.82;99294.44;4142472;28;20257;-62
2022/09/13 04:20:57;;;;;;;11.57;5.37;;;;;;;23.80;45.86;99283.00;4145988;28;20241;-62
2022/09/13 04:22:59;;;;;;;7.17;5.83;;;;;;;23.39;45.95;99324.09;4140685;28;20228;-62
2022/09/13 04:25:01;;;;;;;6.03;5.17;;;;;;;23.68;45.45;99300.25;4146483;28;20229;-62
2022/09/13 04:27:03;;;;;;;6.13;5.53;;;;;;;22.70;47.23;99325.38;4144957;28;20237;-63
2022/09/13 04:29:05;;;;;;;8.50;5.13;;;;;;;21.69;49.23;99354.03;4145815;28;20543;-63
2022/09/13 04:31:06;;;;;;;9.10;5.20;;;;;;;22.53;48.03;99297.50;4142499;28;20237;-62
2022/09/13 04:33:08;;;;;;;6.17;5.57;;;;;;;23.36;46.15;99295.56;4143150;28;20256;-63
2022/09/13 04:35:10;;;;;;;7.07;5.23;;;;;;;22.57;47.63;99336.56;4141651;28;20241;-63
2022/09/13 04:37:12;;;;;;;8.50;5.80;;;;;;;23.07;46.62;99322.09;4142609;28;20233;-63
2022/09/13 04:39:14;;;;;;;8.37;5.50;;;;;;;23.60;45.47;99297.19;4144357;28;20320;-63
2022/09/13 04:41:16;;;;;;;7.50;5.50;;;;;;;23.31;45.97;99325.34;4143349;28;20233;-62
2022/09/13 04:43:17;;;;;;;7.50;5.80;;;;;;;23.53;45.44;99321.78;4141915;28;20325;-63
2022/09/13 04:45:19;;;;;;;7.67;5.80;;;;;;;23.89;44.84;99322.16;4140614;28;20245;-63
2022/09/13 04:47:21;;;;;;;6.50;5.53;;;;;;;23.55;45.49;99349.47;4142530;28;20256;-63
2022/09/13 04:49:23;;;;;;;7.53;5.57;;;;;;;22.56;47.49;99368.25;4144921;28;20235;-63
2022/09/13 04:51:24;;;;;;;7.40;5.37;;;;;;;23.54;46.07;99320.72;4140519;28;20696;-63
2022/09/13 04:53:26;;;;;;;7.17;5.00;;;;;;;23.97;45.10;99301.88;4137346;28;20335;-64
2022/09/13 04:55:28;;;;;;;9.43;6.10;;;;;;;20.89;50.13;99390.75;4141700;28;20239;-64
2022/09/13 04:57:29;;;;;;;9.23;5.47;;;;;;;20.93;50.45;99351.38;4139237;28;20239;-63
2022/09/13 04:59:31;;;;;;;6.70;5.20;;;;;;;22.61;47.70;99297.88;4141647;28;20251;-64
2022/09/13 05:01:33;;;;;;;6.77;4.87;;;;;;;22.74;47.14;99317.53;4144493;28;20233;-63
2022/09/13 05:03:36;;;;;;;6.97;5.20;;;;;;;23.37;45.93;99290.97;4138413;28;20282;-64
2022/09/13 05:05:38;;;;;;;10.77;5.40;;;;;;;22.38;46.84;99371.22;4144283;28;20263;-63
2022/09/13 05:07:39;;;;;;;7.93;4.90;;;;;;;20.32;51.11;99375.09;4142946;28;20235;-63
2022/09/13 05:09:41;;;;;;;6.83;4.60;;;;;;;22.04;48.68;99289.97;4142156;28;20324;-63
2022/09/13 05:11:43;;;;;;;6.07;4.70;;;;;;;22.50;47.36;99315.06;4140918;28;20229;-63
2022/09/13 05:13:51;;;;;;;6.33;4.80;;;;;;;23.38;46.17;99298.84;4139231;28;20269;-63
2022/09/13 05:15:58;;;;;;;7.80;6.00;;;;;;;21.68;48.09;99375.91;4138440;28;20323;-63
2022/09/13 05:17:59;;;;;;;6.00;4.90;;;;;;;21.83;48.92;99308.56;4142134;28;20303;-63
2022/09/13 05:20:01;;;;;;;11.33;5.40;;;;;;;22.94;46.86;99279.06;4143146;28;20237;-63
2022/09/13 05:22:03;;;;;;;7.50;5.70;;;;;;;23.29;45.89;99313.13;4138941;28;20483;-64
2022/09/13 05:24:04;;;;;;;6.80;5.13;;;;;;;21.02;49.62;99395.09;4143674;28;20229;-63
2022/09/13 05:26:07;;;;;;;5.60;4.87;;;;;;;22.55;47.59;99311.59;4137780;28;20236;-63
2022/09/13 05:28:08;;;;;;;6.63;4.80;;;;;;;23.17;46.19;99322.19;4139580;28;20239;-63
2022/09/13 05:30:11;;;;;;;5.57;4.83;;;;;;;23.78;45.11;99302.25;4142740;28;20295;-63
2022/09/13 05:32:13;;;;;;;6.37;5.30;;;;;;;23.57;45.76;99337.34;4141890;28;20233;-64
2022/09/13 05:34:18;;;;;;;6.27;5.10;;;;;;;23.56;45.74;99349.25;4141805;28;20260;-63
2022/09/13 05:36:20;;;;;;;6.20;5.40;;;;;;;23.61;45.52;99351.22;4139478;28;20228;-63
2022/09/13 05:38:22;;;;;;;7.67;5.53;;;;;;;23.71;45.37;99358.63;4140186;28;20233;-64
2022/09/13 05:40:23;;;;;;;11.07;5.07;;;;;;;23.59;45.46;99375.06;4142147;28;20697;-62
2022/09/13 05:42:25;;;;;;;8.73;4.70;;;;;;;23.35;45.85;99393.47;4139729;28;20233;-63
2022/09/13 05:44:27;;;;;;;7.27;4.87;;;;;;;23.09;46.21;99395.84;4139544;28;20230;-63
2022/09/13 05:46:28;;;;;;;7.90;4.90;;;;;;;23.20;46.17;99380.56;4139398;28;20235;-62
2022/09/13 05:48:31;;;;;;;9.40;5.30;;;;;;;23.17;46.41;99378.34;4143255;28;20670;-63
2022/09/13 05:50:36;;;;;;;7.90;5.13;;;;;;;23.69;45.40;99358.09;4144801;28;20243;-64
2022/09/13 05:52:58;;;;;;;8.47;4.77;;;;;;;22.86;46.81;99377.06;4137325;28;20651;-63
2022/09/13 05:54:59;;;;;;;9.73;5.00;;;;;;;20.84;49.85;99441.13;4140053;28;20244;-63
2022/09/13 05:57:01;;;;;;;6.63;4.77;;;;;;;19.27;53.96;99414.03;4141711;28;20744;-63
2022/09/13 05:59:03;;;;;;;5.33;4.60;;;;;;;20.47;52.05;99327.94;4139995;28;20714;-63
2022/09/13 06:01:06;;;;;;;6.20;4.90;;;;;;;20.43;51.48;99354.56;4140253;28;20229;-63
2022/09/13 06:03:07;;;;;;;7.77;5.20;;;;;;;21.50;49.59;99312.00;4137402;28;20237;-63
2022/09/13 06:05:10;;;;;;;8.33;5.07;;;;;;;22.00;48.76;99305.03;4140699;28;20237;-63
2022/09/13 06:07:11;;;;;;;6.20;5.03;;;;;;;21.17;49.86;99367.59;4139114;28;20336;-63
2022/09/13 06:09:13;;;;;;;8.67;5.00;;;;;;;20.87;50.42;99378.53;4142046;28;20241;-63
2022/09/13 06:11:14;;;;;;;7.73;4.63;;;;;;;20.62;50.52;99388.50;4137290;28;20233;-64
2022/09/13 06:13:16;;;;;;;6.37;5.00;;;;;;;20.48;51.93;99346.56;4142082;28;20229;-63
2022/09/13 06:15:17;;;;;;;6.73;4.70;;;;;;;20.13;52.68;99349.19;4141713;28;20240;-63
2022/09/13 06:17:19;;;;;;;7.20;5.17;;;;;;;20.16;53.05;99310.97;4140526;28;20229;-63
2022/09/13 06:19:21;;;;;;;11.30;5.93;;;;;;;20.62;51.62;99325.56;4140598;28;20225;-62
2022/09/13 06:21:22;;;;;;;8.40;4.77;;;;;;;20.02;53.35;99299.56;4140228;28;20225;-62
2022/09/13 06:23:29;;;;;;;9.00;5.13;;;;;;;19.93;53.81;99284.78;4138051;28;20614;-63
2022/09/13 06:25:31;;;;;;;8.67;5.63;;;;;;;18.59;57.04;99316.06;4140934;28;20774;-63
2022/09/13 06:27:33;;;;;;;5.80;5.10;;;;;;;18.78;57.21;99260.38;4138335;28;20441;-63
2022/09/13 06:29:35;;;;;;;7.97;5.57;;;;;;;18.88;57.32;99219.44;4137086;28;20230;-64
2022/09/13 06:31:37;;;;;;;7.90;5.37;;;;;;;19.71;55.58;99193.63;4136327;28;20244;-63
2022/09/13 06:33:41;;;;;;;7.60;5.83;;;;;;;19.82;55.55;99194.66;4139010;28;20357;-63
2022/09/13 06:35:42;;;;;;;8.63;5.80;;;;;;;19.91;55.70;99195.13;4141405;28;20273;-63
2022/09/13 06:37:44;;;;;;;10.73;5.90;;;;;;;19.58;54.85;99299.00;4141221;28;20883;-63
2022/09/13 06:39:46;;;;;;;11.10;6.10;;;;;;;20.56;53.63;99230.09;4140177;28;20229;-63
2022/09/13 06:41:47;;;;;;;9.77;6.27;;;;;;;20.22;54.65;99219.06;4141311;28;20237;-64
2022/09/13 06:43:54;;;;;;;8.43;5.30;;;;;;;21.75;51.73;99197.19;4141561;28;20233;-63
2022/09/13 06:46:05;;;;;;;8.30;6.13;;;;;;;23.11;49.37;99186.81;4139672;28;20237;-63
2022/09/13 06:48:07;;;;;;;7.83;6.10;;;;;;;21.92;51.17;99269.19;4140811;28;20255;-63
2022/09/13 06:50:08;;;;;;;6.83;5.60;;;;;;;20.98;52.42;99324.50;4142704;28;20320;-63
2022/09/13 06:52:10;;;;;;;7.77;5.77;;;;;;;21.13;52.57;99305.06;4141776;28;20304;-63
2022/09/13 06:54:12;;;;;;;8.90;6.60;;;;;;;22.23;50.88;99253.41;4138546;28;20225;-63
2022/09/13 06:56:16;;;;;;;8.23;6.10;;;;;;;22.51;50.94;99223.75;4137278;28;20637;-63
2022/09/13 06:58:18;;;;;;;10.63;5.93;;;;;;;22.18;50.57;99312.09;4140645;28;20233;-63
2022/09/13 07:00:19;;;;;;;8.80;6.90;;;;;;;22.41;50.54;99276.75;4140928;28;20229;-63
2022/09/13 07:02:21;;;;;;;8.30;5.93;;;;;;;21.67;52.44;99283.09;4141361;28;20312;-63
2022/09/13 07:04:23;;;;;;;10.03;6.17;;;;;;;22.60;50.45;99243.94;4139595;28;20232;-63
2022/09/13 07:06:46;;;;;;;11.93;5.80;;;;;;;23.51;48.57;99210.78;4139466;28;20732;-63
2022/09/13 07:08:49;;;;;;;9.57;6.13;;;;;;;21.80;52.63;99291.97;4142349;28;20252;-63
2022/09/13 07:10:56;;;;;;;8.37;6.00;;;;;;;21.91;52.48;99272.94;4140490;28;20652;-63
2022/09/13 07:12:58;;;;;;;9.87;6.20;;;;;;;22.58;50.78;99260.44;4142826;28;20282;-63
2022/09/13 07:15:00;;;;;;;11.97;6.30;;;;;;;21.91;51.99;99320.84;4142036;28;20233;-63
2022/09/13 07:17:01;;;;;;;6.97;5.63;;;;;;;23.36;49.60;99226.94;4138517;28;20229;-64
2022/09/13 07:19:11;;;;;;;10.90;6.40;;;;;;;24.61;47.12;99233.03;4140766;28;20291;-64
2022/09/13 07:21:12;;;;;;;7.60;5.43;;;;;;;24.94;45.70;99267.19;4133362;28;20225;-63
2022/09/13 07:23:14;;;;;;;7.70;5.83;;;;;;;24.17;47.47;99344.69;4141032;28;20582;-64
2022/09/13 07:25:15;;;;;;;8.57;5.63;;;;;;;24.43;46.59;99321.25;4138754;28;20244;-63
2022/09/13 07:27:17;;;;;;;6.97;5.30;;;;;;;23.31;47.91;99392.34;4139632;28;20670;-63
2022/09/13 07:29:22;;;;;;;9.80;5.20;;;;;;;22.31;50.63;99365.97;4141821;28;20304;-63
2022/09/13 07:31:33;;;;;;;7.53;5.30;;;;;;;23.35;49.35;99288.50;4139878;28;20702;-63
2022/09/13 07:33:36;;;;;;;7.63;5.60;;;;;;;22.97;49.66;99335.50;4134631;28;20627;-63
2022/09/13 07:35:37;;;;;;;7.97;5.40;;;;;;;23.34;49.42;99305.84;4145203;28;20817;-64
2022/09/13 07:37:41;;;;;;;11.17;5.17;;;;;;;23.96;48.03;99263.03;4140488;28;20237;-64
2022/09/13 07:39:42;;;;;;;7.20;5.97;;;;;;;24.06;47.86;99278.59;4137509;28;20718;-64
2022/09/13 07:41:45;;;;;;;6.77;5.37;;;;;;;22.53;51.02;99319.97;4139274;28;20233;-63
2022/09/13 07:43:47;;;;;;;9.10;4.70;;;;;;;24.37;47.39;99240.78;4139181;28;20316;-64
2022/09/13 07:45:59;;;;;;;10.50;5.20;;;;;;;23.64;48.88;99298.31;4141270;28;20260;-64
2022/09/13 07:48:01;;;;;;;9.60;5.10;;;;;;;23.76;48.65;99307.13;4143209;28;20644;-63
2022/09/13 07:50:03;;;;;;;7.20;5.30;;;;;;;23.64;48.24;99312.72;4140467;28;20596;-63
2022/09/13 07:52:04;;;;;;;7.87;5.03;;;;;;;24.43;47.64;99261.47;4140691;28;20496;-64
2022/09/13 07:54:10;;;;;;;6.20;4.90;;;;;;;24.36;47.75;99274.47;4143338;28;20225;-64
2022/09/13 07:56:17;;;;;;;8.87;5.20;;;;;;;25.42;45.57;99229.81;4137369;28;20243;-64
2022/09/13 07:58:19;;;;;;;5.97;4.83;;;;;;;25.33;45.19;99260.50;4141055;28;20224;-64
2022/09/13 08:00:21;;;;;;;7.13;4.80;;;;;;;25.08;45.92;99272.13;4144917;28;20237;-64
2022/09/13 08:02:22;;;;;;;12.47;4.83;;;;;;;24.83;46.67;99293.53;4141078;28;20236;-64
2022/09/13 08:04:25;;;;;;;7.57;4.60;;;;;;;25.27;45.06;99270.53;4141690;28;20307;-64
2022/09/13 08:06:28;;;;;;;7.27;4.77;;;;;;;25.93;43.40;99260.81;4140564;28;20229;-64
2022/09/13 08:08:31;;;;;;;7.47;4.47;;;;;;;25.61;43.57;99300.03;4142054;28;20259;-64
2022/09/13 08:10:33;;;;;;;9.67;4.60;;;;;;;25.73;43.63;99307.97;4137523;28;20328;-64
2022/09/13 08:12:35;;;;;;;7.63;4.57;;;;;;;25.85;43.34;99302.25;4143755;28;20241;-63
2022/09/13 08:14:36;;;;;;;8.70;4.50;;;;;;;25.67;43.91;99318.00;4143455;28;20634;-64
2022/09/13 08:16:38;;;;;;;12.20;5.83;;;;;;;25.33;45.02;99342.94;4140484;28;20511;-64
2022/09/13 08:18:49;;;;;;;11.07;4.30;;;;;;;25.49;45.25;99305.75;4144087;28;20243;-63
2022/09/13 08:20:56;;;;;;;11.60;4.83;;;;;;;24.58;46.75;99353.97;4138017;28;20347;-63
2022/09/13 08:22:57;;;;;;;7.07;4.57;;;;;;;25.19;45.63;99312.69;4143156;28;21527;-63
2022/09/13 08:24:59;;;;;;;8.37;4.17;;;;;;;25.81;44.21;99301.13;4143980;28;20616;-64
2022/09/13 08:27:00;;;;;;;9.37;4.00;;;;;;;25.77;44.20;99328.91;4141767;28;20228;-64
2022/09/13 08:29:05;;;;;;;7.43;4.23;;;;;;;25.39;45.24;99351.97;4143146;28;20239;-64
2022/09/13 08:31:14;;;;;;;4.97;3.93;;;;;;;25.25;45.83;99348.88;4143585;28;20312;-64
2022/09/13 08:33:15;;;;;;;7.40;4.60;;;;;;;24.77;46.11;99378.06;4142122;28;20260;-64
2022/09/13 08:35:17;;;;;;;7.23;4.80;;;;;;;25.02;45.44;99347.44;4143137;28;20762;-63
2022/09/13 08:37:18;;;;;;;7.00;4.43;;;;;;;25.66;44.80;99308.22;4145007;28;20240;-64
2022/09/13 08:39:20;;;;;;;7.93;4.57;;;;;;;25.72;45.18;99334.34;4139657;28;20305;-64
2022/09/13 08:41:46;;;;;;;6.93;4.70;;;;;;;25.98;45.39;99312.59;4143533;28;20313;-63
2022/09/13 08:43:53;;;;;;;8.53;4.37;;;;;;;26.06;45.81;99297.63;4141693;28;20523;-63
2022/09/13 08:46:21;;;;;;;5.60;4.50;;;;;;;25.14;46.39;99352.66;4143929;28;20740;-64
2022/09/13 08:48:31;;;;;;;7.07;4.37;;;;;;;26.10;45.27;99315.88;4155741;28;20228;-64
2022/09/13 08:50:35;;;;;;;6.40;5.03;;;;;;;25.14;46.78;99352.66;4136234;28;20732;-64
2022/09/13 08:52:40;;;;;;;9.93;5.20;;;;;;;26.11;45.30;99287.53;4144079;28;20331;-63
2022/09/13 08:54:42;;;;;;;5.53;4.53;;;;;;;25.53;46.80;99323.16;4141747;28;20237;-64
2022/09/13 08:56:52;;;;;;;5.70;5.03;;;;;;;25.53;46.46;99322.34;4141440;28;20418;-64
2022/09/13 08:59:15;;;;;;;9.27;5.10;;;;;;;25.91;46.25;99312.03;4139923;28;20715;-63
2022/09/13 09:01:37;;;;;;;9.83;4.60;;;;;;;26.50;44.47;99288.84;4138466;28;20312;-63
2022/09/13 09:03:48;;;;;;;7.13;4.57;;;;;;;26.48;44.60;99319.09;4140395;28;20247;-64
2022/09/13 09:05:51;;;;;;;7.30;4.33;;;;;;;26.34;45.04;99323.50;4140156;28;20229;-63
2022/09/13 09:07:58;;;;;;;5.50;4.30;;;;;;;26.50;45.09;99324.28;4143596;28;20260;-63
2022/09/13 09:10:03;;;;;;;6.00;4.97;;;;;;;26.55;44.04;99328.94;4142851;28;20772;-64
2022/09/13 09:12:26;;;;;;;5.73;4.80;;;;;;;26.90;44.57;99309.75;4138900;28;20236;-64
2022/09/13 09:14:38;;;;;;;7.67;4.30;;;;;;;27.13;43.61;99325.78;4135873;28;20226;-63
2022/09/13 09:16:46;;;;;;;8.60;4.87;;;;;;;26.06;45.61;99382.88;4142532;28;20272;-63
2022/09/13 09:18:48;;;;;;;5.47;4.40;;;;;;;26.76;44.28;99326.97;4141905;28;20325;-64
2022/09/13 09:20:52;;;;;;;6.57;4.70;;;;;;;26.35;45.52;99346.91;4141223;28;20316;-64
2022/09/13 09:22:54;;;;;;;5.55;4.55;;;;;;;26.95;44.12;99321.75;4145406;28;20229;-63
2022/09/13 09:24:57;;;;;;;5.78;4.85;;;;;;;26.90;44.51;99326.09;4141490;28;20549;-63
2022/09/13 09:27:01;;;;;;;6.13;4.05;;;;;;;26.87;44.91;99307.56;4141857;28;20229;-64
2022/09/13 09:29:24;;;;;;;8.45;4.20;;;;;;;26.77;44.78;99323.97;4140591;28;20702;-64
2022/09/13 09:31:42;;;;;;;5.07;4.35;;;;;;;27.25;43.93;99297.06;4140814;28;20249;-64
2022/09/13 09:33:57;;;;;;;4.05;3.65;;;;;;;26.83;45.10;99319.34;4140742;28;20748;-64
2022/09/13 09:36:12;;;;;;;5.53;4.00;;;;;;;25.96;47.16;99347.47;4138678;28;20300;-64
2022/09/13 09:38:30;;;;;;;7.75;4.03;;;;;;;27.17;44.82;99300.38;4141245;28;20390;-64
2022/09/13 09:40:34;;;;;;;7.88;4.00;;;;;;;27.68;43.54;99303.94;4134985;28;20238;-63
2022/09/13 09:42:48;;;;;;;5.38;3.45;;;;;;;27.94;43.19;99319.03;4138831;28;20524;-64
2022/09/13 09:44:59;;;;;;;4.00;3.60;;;;;;;28.07;42.11;99335.88;4141873;28;20717;-64
2022/09/13 09:47:15;;;;;;;7.00;3.40;;;;;;;27.89;42.40;99354.59;4135058;28;20233;-63
2022/09/13 09:51:49;;;;;;;5.47;3.30;;;;;;;27.57;42.74;99374.97;4136728;28;20348;-64
2022/09/13 09:53:58;;;;;;;6.45;3.17;;;;;;;25.11;46.50;99396.72;4142820;28;20225;-63
2022/09/13 09:56:18;;;;;;;6.60;3.40;;;;;;;27.57;44.08;99289.50;4138458;28;20239;-64
2022/09/13 09:58:43;;;;;;;11.90;4.25;;;;;;;27.19;44.50;99314.56;4139859;28;20309;-64